Decoded Metar for KCTB (CUTBANK in MT, USA) (IATA:CTB) | Meteo·Mobile Aviation Weather
aviador You're here:

KCTB Decoded Metar

CUTBANK in MT, USA
Report Time2019-01-18 12:56:00
UTC Time2019-01-18 13:19:44
Flight Rules vfr VFR
Wind130° at 04 kt
W.Decomp.*RWY 13: 3.8 kt HW 1.2 kt LCW
RWY 05: 1.8 kt HW 3.6 kt RCW
W.Rank130° ranks 18
Current wind is below 130° avg. (7.1)
Visibility9999 m
Phenomena:N/A
Clouds:Overcast 070 Hf
Expected CloudBase > 800 ft AGL from Temp-Dew spread
Ceiling7,000 ft
Temp-13°C (ISA -20)
Dew Point-15°C (85% RH)
AAT-17.8°C
QNH1013 hPa
Density Alt1,362 ft
Elevation3,855 ft
Report Wrong Elevation
Raw Report
KCTB 181256Z AUTO 13004KT 10SM OVC070 M13/M15 A2992 RMK AO2 SNE14
SLP199 P0000 T11331150=

Extra information for KCTB:More info

Metar Taf Metar & Taf Last 4 Metars F.Rules Stats Wind Profile Meteogram Temp Stats Airport Information Weather charts Add Link Nearby VenuesMetar ALERT Operation Metar Decoded Social comments

AIRNAV info for KCTB